sensor_id;sensor_type;location;lat;lon;timestamp;P1;durP1;ratioP1;P2;durP2;ratioP2
47555;SDS011;33291;46.222;26.460;2023-10-08T00:00:45;11.30;;;3.97;;
47555;SDS011;33291;46.222;26.460;2023-10-08T00:03:12;8.60;;;3.28;;
47555;SDS011;33291;46.222;26.460;2023-10-08T00:05:39;9.40;;;3.60;;
47555;SDS011;33291;46.222;26.460;2023-10-08T00:08:05;9.38;;;3.63;;
47555;SDS011;33291;46.222;26.460;2023-10-08T00:10:40;10.30;;;3.53;;
47555;SDS011;33291;46.222;26.460;2023-10-08T00:13:13;6.70;;;3.05;;
47555;SDS011;33291;46.222;26.460;2023-10-08T00:15:43;9.02;;;3.67;;
47555;SDS011;33291;46.222;26.460;2023-10-08T00:18:18;10.52;;;3.40;;
47555;SDS011;33291;46.222;26.460;2023-10-08T00:20:45;9.25;;;3.70;;
47555;SDS011;33291;46.222;26.460;2023-10-08T00:23:33;7.38;;;3.25;;
47555;SDS011;33291;46.222;26.460;2023-10-08T00:26:00;10.10;;;4.10;;
47555;SDS011;33291;46.222;26.460;2023-10-08T00:28:29;5.53;;;3.05;;
47555;SDS011;33291;46.222;26.460;2023-10-08T00:30:57;7.22;;;3.53;;
47555;SDS011;33291;46.222;26.460;2023-10-08T00:33:23;11.50;;;4.40;;
47555;SDS011;33291;46.222;26.460;2023-10-08T00:35:49;10.15;;;3.17;;
47555;SDS011;33291;46.222;26.460;2023-10-08T00:38:14;7.60;;;2.85;;
47555;SDS011;33291;46.222;26.460;2023-10-08T00:40:45;6.63;;;3.10;;
47555;SDS011;33291;46.222;26.460;2023-10-08T00:46:02;7.60;;;3.50;;
47555;SDS011;33291;46.222;26.460;2023-10-08T00:48:29;10.18;;;4.20;;
47555;SDS011;33291;46.222;26.460;2023-10-08T00:51:02;7.70;;;3.88;;
47555;SDS011;33291;46.222;26.460;2023-10-08T00:53:46;6.38;;;3.25;;
47555;SDS011;33291;46.222;26.460;2023-10-08T00:56:16;8.95;;;3.30;;
47555;SDS011;33291;46.222;26.460;2023-10-08T00:58:44;5.38;;;3.13;;
47555;SDS011;33291;46.222;26.460;2023-10-08T01:01:18;6.32;;;3.17;;
47555;SDS011;33291;46.222;26.460;2023-10-08T01:03:46;12.18;;;3.83;;
47555;SDS011;33291;46.222;26.460;2023-10-08T01:06:15;7.63;;;3.55;;
47555;SDS011;33291;46.222;26.460;2023-10-08T01:08:45;14.07;;;3.17;;
47555;SDS011;33291;46.222;26.460;2023-10-08T01:11:21;7.90;;;3.13;;
47555;SDS011;33291;46.222;26.460;2023-10-08T01:13:58;8.13;;;3.50;;
47555;SDS011;33291;46.222;26.460;2023-10-08T01:16:24;6.45;;;3.30;;
47555;SDS011;33291;46.222;26.460;2023-10-08T01:18:53;11.70;;;3.67;;
47555;SDS011;33291;46.222;26.460;2023-10-08T01:21:20;8.63;;;3.60;;
47555;SDS011;33291;46.222;26.460;2023-10-08T01:23:58;6.97;;;3.33;;
47555;SDS011;33291;46.222;26.460;2023-10-08T01:26:25;7.55;;;3.67;;
47555;SDS011;33291;46.222;26.460;2023-10-08T01:28:54;17.88;;;4.20;;
47555;SDS011;33291;46.222;26.460;2023-10-08T01:31:19;9.98;;;3.50;;
47555;SDS011;33291;46.222;26.460;2023-10-08T01:33:45;7.68;;;3.90;;
47555;SDS011;33291;46.222;26.460;2023-10-08T01:36:15;8.05;;;3.97;;
47555;SDS011;33291;46.222;26.460;2023-10-08T01:38:41;8.60;;;4.00;;
47555;SDS011;33291;46.222;26.460;2023-10-08T01:41:07;10.48;;;4.13;;
47555;SDS011;33291;46.222;26.460;2023-10-08T01:43:47;8.63;;;3.17;;
47555;SDS011;33291;46.222;26.460;2023-10-08T01:46:13;7.90;;;3.92;;
47555;SDS011;33291;46.222;26.460;2023-10-08T01:48:40;8.23;;;3.60;;
47555;SDS011;33291;46.222;26.460;2023-10-08T01:51:09;7.43;;;3.20;;
47555;SDS011;33291;46.222;26.460;2023-10-08T01:53:37;17.25;;;3.78;;
47555;SDS011;33291;46.222;26.460;2023-10-08T01:56:06;10.00;;;4.05;;
47555;SDS011;33291;46.222;26.460;2023-10-08T01:58:32;8.55;;;4.03;;
47555;SDS011;33291;46.222;26.460;2023-10-08T02:00:59;8.80;;;3.70;;
47555;SDS011;33291;46.222;26.460;2023-10-08T02:03:25;14.05;;;3.95;;
47555;SDS011;33291;46.222;26.460;2023-10-08T02:05:52;13.25;;;4.55;;
47555;SDS011;33291;46.222;26.460;2023-10-08T02:08:24;9.30;;;3.92;;
47555;SDS011;33291;46.222;26.460;2023-10-08T02:10:51;11.25;;;3.90;;
47555;SDS011;33291;46.222;26.460;2023-10-08T02:13:18;9.15;;;4.10;;
47555;SDS011;33291;46.222;26.460;2023-10-08T02:15:44;10.30;;;3.83;;
47555;SDS011;33291;46.222;26.460;2023-10-08T02:18:11;9.52;;;3.67;;
47555;SDS011;33291;46.222;26.460;2023-10-08T02:20:38;10.70;;;4.13;;
47555;SDS011;33291;46.222;26.460;2023-10-08T02:23:04;6.53;;;3.40;;
47555;SDS011;33291;46.222;26.460;2023-10-08T02:25:30;14.32;;;3.67;;
47555;SDS011;33291;46.222;26.460;2023-10-08T02:27:56;9.13;;;3.80;;
47555;SDS011;33291;46.222;26.460;2023-10-08T02:30:22;7.28;;;3.92;;
47555;SDS011;33291;46.222;26.460;2023-10-08T02:32:48;13.32;;;3.78;;
47555;SDS011;33291;46.222;26.460;2023-10-08T02:35:14;14.23;;;4.10;;
47555;SDS011;33291;46.222;26.460;2023-10-08T02:37:40;9.05;;;3.97;;
47555;SDS011;33291;46.222;26.460;2023-10-08T02:40:09;10.30;;;3.75;;
47555;SDS011;33291;46.222;26.460;2023-10-08T02:42:56;10.95;;;4.05;;
47555;SDS011;33291;46.222;26.460;2023-10-08T02:45:26;10.40;;;3.88;;
47555;SDS011;33291;46.222;26.460;2023-10-08T02:47:53;10.23;;;3.63;;
47555;SDS011;33291;46.222;26.460;2023-10-08T02:50:19;13.88;;;3.97;;
47555;SDS011;33291;46.222;26.460;2023-10-08T02:52:47;10.57;;;4.68;;
47555;SDS011;33291;46.222;26.460;2023-10-08T02:55:18;6.20;;;3.58;;
47555;SDS011;33291;46.222;26.460;2023-10-08T02:58:07;7.45;;;4.32;;
47555;SDS011;33291;46.222;26.460;2023-10-08T03:00:39;13.45;;;3.33;;
47555;SDS011;33291;46.222;26.460;2023-10-08T03:03:09;8.65;;;4.75;;
47555;SDS011;33291;46.222;26.460;2023-10-08T03:05:49;14.15;;;4.00;;
47555;SDS011;33291;46.222;26.460;2023-10-08T03:08:17;10.75;;;3.80;;
47555;SDS011;33291;46.222;26.460;2023-10-08T03:10:47;8.63;;;4.22;;
47555;SDS011;33291;46.222;26.460;2023-10-08T03:13:27;20.75;;;4.50;;
47555;SDS011;33291;46.222;26.460;2023-10-08T03:15:53;12.20;;;4.22;;
47555;SDS011;33291;46.222;26.460;2023-10-08T03:18:27;9.60;;;3.50;;
47555;SDS011;33291;46.222;26.460;2023-10-08T03:21:07;8.18;;;3.65;;
47555;SDS011;33291;46.222;26.460;2023-10-08T03:23:46;12.13;;;4.15;;
47555;SDS011;33291;46.222;26.460;2023-10-08T03:26:16;8.93;;;4.10;;
47555;SDS011;33291;46.222;26.460;2023-10-08T03:28:57;11.05;;;4.40;;
47555;SDS011;33291;46.222;26.460;2023-10-08T03:31:24;9.05;;;3.40;;
47555;SDS011;33291;46.222;26.460;2023-10-08T03:34:08;9.30;;;3.95;;
47555;SDS011;33291;46.222;26.460;2023-10-08T03:36:37;10.23;;;3.45;;
47555;SDS011;33291;46.222;26.460;2023-10-08T03:39:09;10.75;;;3.78;;
47555;SDS011;33291;46.222;26.460;2023-10-08T03:41:42;7.65;;;3.97;;
47555;SDS011;33291;46.222;26.460;2023-10-08T03:44:23;12.35;;;4.45;;
47555;SDS011;33291;46.222;26.460;2023-10-08T03:46:49;7.68;;;3.78;;
47555;SDS011;33291;46.222;26.460;2023-10-08T03:49:17;9.35;;;4.25;;
47555;SDS011;33291;46.222;26.460;2023-10-08T03:51:46;6.65;;;3.58;;
47555;SDS011;33291;46.222;26.460;2023-10-08T03:54:13;9.57;;;4.10;;
47555;SDS011;33291;46.222;26.460;2023-10-08T03:56:43;9.23;;;4.07;;
47555;SDS011;33291;46.222;26.460;2023-10-08T03:59:19;8.43;;;3.28;;
47555;SDS011;33291;46.222;26.460;2023-10-08T04:02:00;9.65;;;4.75;;
47555;SDS011;33291;46.222;26.460;2023-10-08T04:04:42;8.80;;;3.97;;
47555;SDS011;33291;46.222;26.460;2023-10-08T04:07:22;16.25;;;4.40;;
47555;SDS011;33291;46.222;26.460;2023-10-08T04:09:52;7.82;;;3.70;;
47555;SDS011;33291;46.222;26.460;2023-10-08T04:12:40;8.77;;;4.50;;
47555;SDS011;33291;46.222;26.460;2023-10-08T04:15:09;8.20;;;3.85;;
47555;SDS011;33291;46.222;26.460;2023-10-08T04:17:37;12.70;;;3.88;;
47555;SDS011;33291;46.222;26.460;2023-10-08T04:20:10;9.88;;;5.00;;
47555;SDS011;33291;46.222;26.460;2023-10-08T04:22:57;8.50;;;3.63;;
47555;SDS011;33291;46.222;26.460;2023-10-08T04:25:27;9.23;;;4.57;;
47555;SDS011;33291;46.222;26.460;2023-10-08T04:27:56;20.00;;;4.75;;
47555;SDS011;33291;46.222;26.460;2023-10-08T04:30:26;15.67;;;4.50;;
47555;SDS011;33291;46.222;26.460;2023-10-08T04:33:00;11.18;;;4.65;;
47555;SDS011;33291;46.222;26.460;2023-10-08T04:35:36;8.32;;;3.58;;
47555;SDS011;33291;46.222;26.460;2023-10-08T04:38:13;10.50;;;3.75;;
47555;SDS011;33291;46.222;26.460;2023-10-08T04:40:50;13.73;;;4.03;;
47555;SDS011;33291;46.222;26.460;2023-10-08T04:43:23;7.90;;;4.07;;
47555;SDS011;33291;46.222;26.460;2023-10-08T04:45:59;15.65;;;4.75;;
47555;SDS011;33291;46.222;26.460;2023-10-08T04:48:46;9.73;;;3.53;;
47555;SDS011;33291;46.222;26.460;2023-10-08T04:51:11;5.97;;;3.10;;
47555;SDS011;33291;46.222;26.460;2023-10-08T04:53:39;10.40;;;4.05;;
47555;SDS011;33291;46.222;26.460;2023-10-08T04:56:09;7.38;;;3.63;;
47555;SDS011;33291;46.222;26.460;2023-10-08T04:58:44;6.47;;;3.47;;
47555;SDS011;33291;46.222;26.460;2023-10-08T05:03:43;7.63;;;3.70;;
47555;SDS011;33291;46.222;26.460;2023-10-08T05:06:30;7.45;;;3.78;;
47555;SDS011;33291;46.222;26.460;2023-10-08T05:09:00;12.50;;;3.67;;
47555;SDS011;33291;46.222;26.460;2023-10-08T05:11:38;9.80;;;4.03;;
47555;SDS011;33291;46.222;26.460;2023-10-08T05:14:19;10.90;;;4.20;;
47555;SDS011;33291;46.222;26.460;2023-10-08T05:16:58;10.68;;;3.88;;
47555;SDS011;33291;46.222;26.460;2023-10-08T05:19:47;8.38;;;3.67;;
47555;SDS011;33291;46.222;26.460;2023-10-08T05:22:21;9.20;;;3.42;;
47555;SDS011;33291;46.222;26.460;2023-10-08T05:24:53;10.20;;;3.50;;
47555;SDS011;33291;46.222;26.460;2023-10-08T05:27:39;7.88;;;3.97;;
47555;SDS011;33291;46.222;26.460;2023-10-08T05:30:14;7.68;;;3.63;;
47555;SDS011;33291;46.222;26.460;2023-10-08T05:33:02;6.38;;;3.63;;
47555;SDS011;33291;46.222;26.460;2023-10-08T05:35:28;8.88;;;4.18;;
47555;SDS011;33291;46.222;26.460;2023-10-08T05:38:10;8.15;;;3.70;;
47555;SDS011;33291;46.222;26.460;2023-10-08T05:41:03;8.32;;;3.33;;
47555;SDS011;33291;46.222;26.460;2023-10-08T05:43:31;10.10;;;4.07;;
47555;SDS011;33291;46.222;26.460;2023-10-08T05:46:06;7.45;;;3.65;;
47555;SDS011;33291;46.222;26.460;2023-10-08T05:48:49;8.15;;;3.60;;
47555;SDS011;33291;46.222;26.460;2023-10-08T05:51:37;9.93;;;3.88;;
47555;SDS011;33291;46.222;26.460;2023-10-08T05:56:54;7.57;;;3.40;;
47555;SDS011;33291;46.222;26.460;2023-10-08T05:59:31;8.40;;;3.65;;
47555;SDS011;33291;46.222;26.460;2023-10-08T06:02:04;7.78;;;3.70;;
47555;SDS011;33291;46.222;26.460;2023-10-08T06:05:03;14.65;;;4.03;;
47555;SDS011;33291;46.222;26.460;2023-10-08T06:07:39;11.90;;;3.35;;
47555;SDS011;33291;46.222;26.460;2023-10-08T06:10:33;11.02;;;3.58;;
47555;SDS011;33291;46.222;26.460;2023-10-08T06:13:05;16.58;;;4.68;;
47555;SDS011;33291;46.222;26.460;2023-10-08T06:15:42;7.82;;;4.00;;
47555;SDS011;33291;46.222;26.460;2023-10-08T06:18:22;9.35;;;3.40;;
47555;SDS011;33291;46.222;26.460;2023-10-08T06:20:54;13.02;;;3.53;;
47555;SDS011;33291;46.222;26.460;2023-10-08T06:23:21;11.52;;;3.78;;
47555;SDS011;33291;46.222;26.460;2023-10-08T06:25:48;10.18;;;4.03;;
47555;SDS011;33291;46.222;26.460;2023-10-08T06:28:21;8.00;;;4.25;;
47555;SDS011;33291;46.222;26.460;2023-10-08T06:30:51;7.43;;;3.30;;
47555;SDS011;33291;46.222;26.460;2023-10-08T06:33:22;9.27;;;3.88;;
47555;SDS011;33291;46.222;26.460;2023-10-08T06:35:55;13.07;;;3.90;;
47555;SDS011;33291;46.222;26.460;2023-10-08T06:38:37;12.88;;;3.63;;
47555;SDS011;33291;46.222;26.460;2023-10-08T06:41:04;9.73;;;3.95;;
47555;SDS011;33291;46.222;26.460;2023-10-08T06:43:40;7.35;;;3.85;;
47555;SDS011;33291;46.222;26.460;2023-10-08T06:46:13;6.78;;;3.63;;
47555;SDS011;33291;46.222;26.460;2023-10-08T06:48:39;7.70;;;3.80;;
47555;SDS011;33291;46.222;26.460;2023-10-08T06:51:09;7.55;;;3.63;;
47555;SDS011;33291;46.222;26.460;2023-10-08T06:53:43;9.75;;;3.70;;
47555;SDS011;33291;46.222;26.460;2023-10-08T06:56:11;8.82;;;3.38;;
47555;SDS011;33291;46.222;26.460;2023-10-08T06:58:40;20.77;;;4.10;;
47555;SDS011;33291;46.222;26.460;2023-10-08T07:01:13;8.55;;;3.60;;
47555;SDS011;33291;46.222;26.460;2023-10-08T07:03:46;7.68;;;3.95;;
47555;SDS011;33291;46.222;26.460;2023-10-08T07:06:14;10.80;;;4.18;;
47555;SDS011;33291;46.222;26.460;2023-10-08T07:08:50;13.48;;;3.95;;
47555;SDS011;33291;46.222;26.460;2023-10-08T07:11:20;7.18;;;4.03;;
47555;SDS011;33291;46.222;26.460;2023-10-08T07:13:46;10.52;;;3.63;;
47555;SDS011;33291;46.222;26.460;2023-10-08T07:16:12;10.57;;;4.85;;
47555;SDS011;33291;46.222;26.460;2023-10-08T07:18:42;6.93;;;3.63;;
47555;SDS011;33291;46.222;26.460;2023-10-08T07:21:15;11.48;;;3.65;;
47555;SDS011;33291;46.222;26.460;2023-10-08T07:23:40;8.52;;;4.05;;
47555;SDS011;33291;46.222;26.460;2023-10-08T07:26:26;12.02;;;4.30;;
47555;SDS011;33291;46.222;26.460;2023-10-08T07:29:01;9.13;;;3.42;;
47555;SDS011;33291;46.222;26.460;2023-10-08T07:31:33;7.18;;;3.08;;
47555;SDS011;33291;46.222;26.460;2023-10-08T07:33:59;9.05;;;3.88;;
47555;SDS011;33291;46.222;26.460;2023-10-08T07:36:40;13.40;;;4.50;;
47555;SDS011;33291;46.222;26.460;2023-10-08T07:39:08;8.45;;;3.63;;
47555;SDS011;33291;46.222;26.460;2023-10-08T07:41:45;6.00;;;3.88;;
47555;SDS011;33291;46.222;26.460;2023-10-08T07:44:12;9.70;;;3.67;;
47555;SDS011;33291;46.222;26.460;2023-10-08T07:46:37;9.63;;;3.95;;
47555;SDS011;33291;46.222;26.460;2023-10-08T07:49:03;10.60;;;3.95;;
47555;SDS011;33291;46.222;26.460;2023-10-08T07:51:29;9.38;;;4.03;;
47555;SDS011;33291;46.222;26.460;2023-10-08T07:53:55;9.13;;;3.45;;
47555;SDS011;33291;46.222;26.460;2023-10-08T07:56:24;8.20;;;3.83;;
47555;SDS011;33291;46.222;26.460;2023-10-08T07:58:53;9.35;;;3.88;;
47555;SDS011;33291;46.222;26.460;2023-10-08T08:01:22;9.82;;;4.13;;
47555;SDS011;33291;46.222;26.460;2023-10-08T08:03:50;11.55;;;3.63;;
47555;SDS011;33291;46.222;26.460;2023-10-08T08:06:16;11.57;;;4.15;;
47555;SDS011;33291;46.222;26.460;2023-10-08T08:08:42;7.60;;;3.30;;
47555;SDS011;33291;46.222;26.460;2023-10-08T08:11:09;10.40;;;3.75;;
47555;SDS011;33291;46.222;26.460;2023-10-08T08:13:42;9.18;;;3.72;;
47555;SDS011;33291;46.222;26.460;2023-10-08T08:16:09;8.30;;;3.60;;
47555;SDS011;33291;46.222;26.460;2023-10-08T08:21:17;13.27;;;3.45;;
47555;SDS011;33291;46.222;26.460;2023-10-08T08:23:47;10.60;;;3.53;;
47555;SDS011;33291;46.222;26.460;2023-10-08T08:26:33;7.68;;;4.45;;
47555;SDS011;33291;46.222;26.460;2023-10-08T08:29:05;7.80;;;3.10;;
47555;SDS011;33291;46.222;26.460;2023-10-08T08:31:39;10.07;;;4.22;;
47555;SDS011;33291;46.222;26.460;2023-10-08T08:34:06;15.27;;;4.25;;
47555;SDS011;33291;46.222;26.460;2023-10-08T08:36:39;5.50;;;3.20;;
47555;SDS011;33291;46.222;26.460;2023-10-08T08:39:11;9.98;;;3.58;;
47555;SDS011;33291;46.222;26.460;2023-10-08T08:41:37;7.78;;;3.88;;
47555;SDS011;33291;46.222;26.460;2023-10-08T08:44:03;14.05;;;4.47;;
47555;SDS011;33291;46.222;26.460;2023-10-08T08:46:35;8.25;;;4.10;;
47555;SDS011;33291;46.222;26.460;2023-10-08T08:49:03;16.05;;;3.63;;
47555;SDS011;33291;46.222;26.460;2023-10-08T08:51:32;10.30;;;3.88;;
47555;SDS011;33291;46.222;26.460;2023-10-08T08:54:00;8.90;;;3.63;;
47555;SDS011;33291;46.222;26.460;2023-10-08T08:56:31;13.25;;;4.35;;
47555;SDS011;33291;46.222;26.460;2023-10-08T08:58:58;7.70;;;3.92;;
47555;SDS011;33291;46.222;26.460;2023-10-08T09:01:25;8.52;;;3.00;;
47555;SDS011;33291;46.222;26.460;2023-10-08T09:03:50;14.00;;;3.47;;
47555;SDS011;33291;46.222;26.460;2023-10-08T09:06:16;13.77;;;4.03;;
47555;SDS011;33291;46.222;26.460;2023-10-08T09:08:42;7.60;;;3.90;;
47555;SDS011;33291;46.222;26.460;2023-10-08T09:11:13;11.70;;;4.22;;
47555;SDS011;33291;46.222;26.460;2023-10-08T09:13:40;7.55;;;3.67;;
47555;SDS011;33291;46.222;26.460;2023-10-08T09:18:33;12.77;;;3.55;;
47555;SDS011;33291;46.222;26.460;2023-10-08T09:21:13;11.73;;;3.83;;
47555;SDS011;33291;46.222;26.460;2023-10-08T09:23:40;13.48;;;3.55;;
47555;SDS011;33291;46.222;26.460;2023-10-08T09:26:10;9.40;;;4.57;;
47555;SDS011;33291;46.222;26.460;2023-10-08T09:28:38;14.00;;;3.50;;
47555;SDS011;33291;46.222;26.460;2023-10-08T09:31:06;11.93;;;3.78;;
47555;SDS011;33291;46.222;26.460;2023-10-08T09:33:36;6.97;;;3.13;;
47555;SDS011;33291;46.222;26.460;2023-10-08T09:36:02;17.88;;;3.78;;
47555;SDS011;33291;46.222;26.460;2023-10-08T09:38:32;15.02;;;3.83;;
47555;SDS011;33291;46.222;26.460;2023-10-08T09:40:59;14.18;;;4.07;;
47555;SDS011;33291;46.222;26.460;2023-10-08T09:43:28;12.18;;;4.80;;
47555;SDS011;33291;46.222;26.460;2023-10-08T09:46:15;9.98;;;4.18;;
47555;SDS011;33291;46.222;26.460;2023-10-08T09:48:47;13.52;;;3.97;;
47555;SDS011;33291;46.222;26.460;2023-10-08T09:51:18;11.50;;;3.35;;
47555;SDS011;33291;46.222;26.460;2023-10-08T09:56:25;14.38;;;3.20;;
47555;SDS011;33291;46.222;26.460;2023-10-08T09:58:54;15.23;;;3.95;;
47555;SDS011;33291;46.222;26.460;2023-10-08T10:01:20;14.50;;;3.97;;
47555;SDS011;33291;46.222;26.460;2023-10-08T10:03:47;12.43;;;3.53;;
47555;SDS011;33291;46.222;26.460;2023-10-08T10:06:14;18.80;;;4.15;;
47555;SDS011;33291;46.222;26.460;2023-10-08T10:08:42;11.45;;;3.70;;
47555;SDS011;33291;46.222;26.460;2023-10-08T10:11:09;11.68;;;3.85;;
47555;SDS011;33291;46.222;26.460;2023-10-08T10:13:43;15.43;;;3.80;;
47555;SDS011;33291;46.222;26.460;2023-10-08T10:16:12;12.38;;;3.50;;
47555;SDS011;33291;46.222;26.460;2023-10-08T10:18:43;15.70;;;3.95;;
47555;SDS011;33291;46.222;26.460;2023-10-08T10:26:29;13.15;;;4.35;;
47555;SDS011;33291;46.222;26.460;2023-10-08T10:31:40;13.23;;;3.75;;
47555;SDS011;33291;46.222;26.460;2023-10-08T10:34:12;10.60;;;3.65;;
47555;SDS011;33291;46.222;26.460;2023-10-08T10:37:00;9.95;;;3.97;;
47555;SDS011;33291;46.222;26.460;2023-10-08T10:39:49;13.93;;;4.20;;
47555;SDS011;33291;46.222;26.460;2023-10-08T10:42:20;15.95;;;4.63;;
47555;SDS011;33291;46.222;26.460;2023-10-08T10:44:47;12.55;;;5.10;;
47555;SDS011;33291;46.222;26.460;2023-10-08T10:47:14;10.00;;;3.47;;
47555;SDS011;33291;46.222;26.460;2023-10-08T10:49:41;15.13;;;4.47;;
47555;SDS011;33291;46.222;26.460;2023-10-08T10:52:25;13.35;;;4.15;;
47555;SDS011;33291;46.222;26.460;2023-10-08T10:55:10;18.42;;;4.93;;
47555;SDS011;33291;46.222;26.460;2023-10-08T10:57:39;8.95;;;2.15;;
47555;SDS011;33291;46.222;26.460;2023-10-08T11:00:07;4.28;;;1.60;;
47555;SDS011;33291;46.222;26.460;2023-10-08T11:02:52;19.25;;;1.40;;
47555;SDS011;33291;46.222;26.460;2023-10-08T11:05:21;5.85;;;1.95;;
47555;SDS011;33291;46.222;26.460;2023-10-08T11:07:54;4.55;;;0.95;;
47555;SDS011;33291;46.222;26.460;2023-10-08T11:10:25;4.78;;;1.42;;
47555;SDS011;33291;46.222;26.460;2023-10-08T11:12:53;3.50;;;1.25;;
47555;SDS011;33291;46.222;26.460;2023-10-08T11:15:23;6.68;;;1.00;;
47555;SDS011;33291;46.222;26.460;2023-10-08T11:17:56;9.30;;;1.13;;
47555;SDS011;33291;46.222;26.460;2023-10-08T11:20:25;8.15;;;1.13;;
47555;SDS011;33291;46.222;26.460;2023-10-08T11:22:52;3.10;;;0.98;;
47555;SDS011;33291;46.222;26.460;2023-10-08T11:25:22;5.05;;;1.10;;
47555;SDS011;33291;46.222;26.460;2023-10-08T11:27:52;8.18;;;1.23;;
47555;SDS011;33291;46.222;26.460;2023-10-08T11:30:26;2.60;;;1.17;;
47555;SDS011;33291;46.222;26.460;2023-10-08T11:32:56;4.38;;;2.53;;
47555;SDS011;33291;46.222;26.460;2023-10-08T11:35:24;7.13;;;3.53;;
47555;SDS011;33291;46.222;26.460;2023-10-08T11:37:52;8.18;;;2.92;;
47555;SDS011;33291;46.222;26.460;2023-10-08T11:42:56;6.50;;;0.60;;
47555;SDS011;33291;46.222;26.460;2023-10-08T11:45:27;4.78;;;0.68;;
47555;SDS011;33291;46.222;26.460;2023-10-08T11:47:55;3.15;;;1.65;;
47555;SDS011;33291;46.222;26.460;2023-10-08T11:50:24;17.02;;;8.50;;
47555;SDS011;33291;46.222;26.460;2023-10-08T11:52:59;4.88;;;2.20;;
47555;SDS011;33291;46.222;26.460;2023-10-08T11:55:28;6.53;;;0.40;;
47555;SDS011;33291;46.222;26.460;2023-10-08T11:57:54;0.65;;;0.30;;
47555;SDS011;33291;46.222;26.460;2023-10-08T12:00:21;1.15;;;0.30;;
47555;SDS011;33291;46.222;26.460;2023-10-08T12:02:50;9.38;;;0.80;;
47555;SDS011;33291;46.222;26.460;2023-10-08T12:05:19;1.73;;;0.95;;
47555;SDS011;33291;46.222;26.460;2023-10-08T12:07:48;2.20;;;0.20;;
47555;SDS011;33291;46.222;26.460;2023-10-08T12:10:20;2.25;;;0.98;;
47555;SDS011;33291;46.222;26.460;2023-10-08T12:12:56;2.33;;;1.00;;
47555;SDS011;33291;46.222;26.460;2023-10-08T12:15:25;4.95;;;1.60;;
47555;SDS011;33291;46.222;26.460;2023-10-08T12:17:59;3.05;;;1.35;;
47555;SDS011;33291;46.222;26.460;2023-10-08T12:20:37;0.98;;;0.75;;
47555;SDS011;33291;46.222;26.460;2023-10-08T12:23:04;2.17;;;0.90;;
47555;SDS011;33291;46.222;26.460;2023-10-08T12:25:30;1.75;;;0.63;;
47555;SDS011;33291;46.222;26.460;2023-10-08T12:27:59;0.73;;;0.50;;
47555;SDS011;33291;46.222;26.460;2023-10-08T12:30:29;13.45;;;1.15;;
47555;SDS011;33291;46.222;26.460;2023-10-08T12:33:06;1.15;;;0.52;;
47555;SDS011;33291;46.222;26.460;2023-10-08T12:35:32;2.97;;;0.50;;
47555;SDS011;33291;46.222;26.460;2023-10-08T12:37:58;0.68;;;0.38;;
47555;SDS011;33291;46.222;26.460;2023-10-08T12:40:23;1.08;;;0.40;;
47555;SDS011;33291;46.222;26.460;2023-10-08T12:42:50;6.90;;;0.90;;
47555;SDS011;33291;46.222;26.460;2023-10-08T12:45:19;0.57;;;0.38;;
47555;SDS011;33291;46.222;26.460;2023-10-08T12:47:51;2.08;;;0.30;;
47555;SDS011;33291;46.222;26.460;2023-10-08T12:50:20;3.20;;;0.63;;
47555;SDS011;33291;46.222;26.460;2023-10-08T12:52:57;1.63;;;0.57;;
47555;SDS011;33291;46.222;26.460;2023-10-08T12:55:29;0.75;;;0.32;;
47555;SDS011;33291;46.222;26.460;2023-10-08T12:57:56;1.75;;;0.50;;
47555;SDS011;33291;46.222;26.460;2023-10-08T13:00:30;1.52;;;0.65;;
47555;SDS011;33291;46.222;26.460;2023-10-08T13:02:59;1.88;;;1.13;;
47555;SDS011;33291;46.222;26.460;2023-10-08T13:05:26;0.75;;;0.45;;
47555;SDS011;33291;46.222;26.460;2023-10-08T13:07:56;4.47;;;1.40;;
47555;SDS011;33291;46.222;26.460;2023-10-08T13:10:22;4.50;;;2.65;;
47555;SDS011;33291;46.222;26.460;2023-10-08T13:12:48;2.67;;;1.08;;
47555;SDS011;33291;46.222;26.460;2023-10-08T13:15:15;2.08;;;0.60;;
47555;SDS011;33291;46.222;26.460;2023-10-08T13:17:40;1.88;;;0.50;;
47555;SDS011;33291;46.222;26.460;2023-10-08T13:20:11;3.05;;;0.98;;
47555;SDS011;33291;46.222;26.460;2023-10-08T13:22:40;2.35;;;0.75;;
47555;SDS011;33291;46.222;26.460;2023-10-08T13:25:06;0.95;;;0.40;;
47555;SDS011;33291;46.222;26.460;2023-10-08T13:27:32;1.00;;;0.40;;
47555;SDS011;33291;46.222;26.460;2023-10-08T13:29:58;2.15;;;0.30;;
47555;SDS011;33291;46.222;26.460;2023-10-08T13:32:24;0.30;;;0.20;;
47555;SDS011;33291;46.222;26.460;2023-10-08T13:34:49;0.80;;;0.35;;
47555;SDS011;33291;46.222;26.460;2023-10-08T13:37:15;1.30;;;0.40;;
47555;SDS011;33291;46.222;26.460;2023-10-08T13:39:41;1.45;;;0.75;;
47555;SDS011;33291;46.222;26.460;2023-10-08T13:42:06;0.43;;;0.20;;
47555;SDS011;33291;46.222;26.460;2023-10-08T13:44:32;0.43;;;0.00;;
47555;SDS011;33291;46.222;26.460;2023-10-08T13:47:00;0.40;;;0.28;;
47555;SDS011;33291;46.222;26.460;2023-10-08T13:49:30;0.10;;;0.10;;
47555;SDS011;33291;46.222;26.460;2023-10-08T13:51:56;0.47;;;0.20;;
47555;SDS011;33291;46.222;26.460;2023-10-08T13:54:22;2.45;;;0.20;;
47555;SDS011;33291;46.222;26.460;2023-10-08T13:56:50;0.10;;;0.10;;
47555;SDS011;33291;46.222;26.460;2023-10-08T13:59:16;0.50;;;0.20;;
47555;SDS011;33291;46.222;26.460;2023-10-08T14:01:42;0.40;;;0.20;;
47555;SDS011;33291;46.222;26.460;2023-10-08T14:04:11;1.08;;;0.20;;
47555;SDS011;33291;46.222;26.460;2023-10-08T14:06:37;1.52;;;0.10;;
47555;SDS011;33291;46.222;26.460;2023-10-08T14:09:12;1.08;;;0.43;;
47555;SDS011;33291;46.222;26.460;2023-10-08T14:11:45;1.58;;;0.50;;
47555;SDS011;33291;46.222;26.460;2023-10-08T14:14:12;3.20;;;1.10;;
47555;SDS011;33291;46.222;26.460;2023-10-08T14:16:40;4.53;;;0.40;;
47555;SDS011;33291;46.222;26.460;2023-10-08T14:19:12;1.90;;;0.47;;
47555;SDS011;33291;46.222;26.460;2023-10-08T14:21:38;0.30;;;0.20;;
47555;SDS011;33291;46.222;26.460;2023-10-08T14:24:15;5.05;;;0.38;;
47555;SDS011;33291;46.222;26.460;2023-10-08T14:26:43;3.60;;;0.57;;
47555;SDS011;33291;46.222;26.460;2023-10-08T14:29:09;2.00;;;0.60;;
47555;SDS011;33291;46.222;26.460;2023-10-08T14:31:42;2.13;;;0.50;;
47555;SDS011;33291;46.222;26.460;2023-10-08T14:34:14;0.52;;;0.32;;
47555;SDS011;33291;46.222;26.460;2023-10-08T14:36:46;1.85;;;0.60;;
47555;SDS011;33291;46.222;26.460;2023-10-08T14:39:31;1.90;;;0.60;;
47555;SDS011;33291;46.222;26.460;2023-10-08T14:42:16;1.20;;;0.60;;
47555;SDS011;33291;46.222;26.460;2023-10-08T14:45:00;9.82;;;1.35;;
47555;SDS011;33291;46.222;26.460;2023-10-08T14:47:26;1.67;;;1.00;;
47555;SDS011;33291;46.222;26.460;2023-10-08T14:49:52;1.85;;;0.85;;
47555;SDS011;33291;46.222;26.460;2023-10-08T14:52:17;1.75;;;0.32;;
47555;SDS011;33291;46.222;26.460;2023-10-08T14:54:43;2.10;;;0.65;;
47555;SDS011;33291;46.222;26.460;2023-10-08T14:57:10;4.38;;;1.50;;
47555;SDS011;33291;46.222;26.460;2023-10-08T14:59:39;3.08;;;1.45;;
47555;SDS011;33291;46.222;26.460;2023-10-08T15:02:08;2.55;;;0.85;;
47555;SDS011;33291;46.222;26.460;2023-10-08T15:04:36;3.17;;;0.93;;
47555;SDS011;33291;46.222;26.460;2023-10-08T15:07:04;2.05;;;0.90;;
47555;SDS011;33291;46.222;26.460;2023-10-08T15:09:36;2.25;;;0.90;;
47555;SDS011;33291;46.222;26.460;2023-10-08T15:12:04;0.95;;;0.55;;
47555;SDS011;33291;46.222;26.460;2023-10-08T15:14:31;5.63;;;0.50;;
47555;SDS011;33291;46.222;26.460;2023-10-08T15:16:56;13.82;;;0.70;;
47555;SDS011;33291;46.222;26.460;2023-10-08T15:19:22;2.28;;;0.60;;